sensor_id;sensor_type;location;lat;lon;timestamp;P1;durP1;ratioP1;P2;durP2;ratioP2
8596;SDS011;4336;49.310;8.646;2022-09-14T00:01:54;6.80;;;6.20;;
8596;SDS011;4336;49.310;8.646;2022-09-14T00:04:19;6.80;;;6.10;;
8596;SDS011;4336;49.310;8.646;2022-09-14T00:06:46;6.77;;;6.17;;
8596;SDS011;4336;49.310;8.646;2022-09-14T00:09:13;9.83;;;6.80;;
8596;SDS011;4336;49.310;8.646;2022-09-14T00:11:40;9.63;;;7.20;;
8596;SDS011;4336;49.310;8.646;2022-09-14T00:14:06;8.20;;;7.40;;
8596;SDS011;4336;49.310;8.646;2022-09-14T00:16:36;10.20;;;6.47;;
8596;SDS011;4336;49.310;8.646;2022-09-14T00:19:04;9.37;;;6.47;;
8596;SDS011;4336;49.310;8.646;2022-09-14T00:21:32;9.97;;;7.37;;
8596;SDS011;4336;49.310;8.646;2022-09-14T00:23:58;9.57;;;7.87;;
8596;SDS011;4336;49.310;8.646;2022-09-14T00:26:24;7.67;;;6.87;;
8596;SDS011;4336;49.310;8.646;2022-09-14T00:28:55;10.43;;;7.57;;
8596;SDS011;4336;49.310;8.646;2022-09-14T00:31:22;10.20;;;7.40;;
8596;SDS011;4336;49.310;8.646;2022-09-14T00:33:49;9.53;;;7.70;;
8596;SDS011;4336;49.310;8.646;2022-09-14T00:36:17;10.67;;;7.77;;
8596;SDS011;4336;49.310;8.646;2022-09-14T00:38:44;11.13;;;8.30;;
8596;SDS011;4336;49.310;8.646;2022-09-14T00:41:12;10.33;;;8.10;;
8596;SDS011;4336;49.310;8.646;2022-09-14T00:46:24;11.03;;;8.10;;
8596;SDS011;4336;49.310;8.646;2022-09-14T00:48:51;8.90;;;8.00;;
8596;SDS011;4336;49.310;8.646;2022-09-14T00:51:17;11.10;;;8.00;;
8596;SDS011;4336;49.310;8.646;2022-09-14T00:53:44;9.57;;;7.93;;
8596;SDS011;4336;49.310;8.646;2022-09-14T00:56:11;14.43;;;8.37;;
8596;SDS011;4336;49.310;8.646;2022-09-14T00:58:38;11.40;;;8.17;;
8596;SDS011;4336;49.310;8.646;2022-09-14T01:01:04;12.33;;;8.07;;
8596;SDS011;4336;49.310;8.646;2022-09-14T01:03:34;11.33;;;8.57;;
8596;SDS011;4336;49.310;8.646;2022-09-14T01:11:09;10.97;;;8.13;;
8596;SDS011;4336;49.310;8.646;2022-09-14T01:13:50;11.43;;;8.83;;
8596;SDS011;4336;49.310;8.646;2022-09-14T01:16:34;11.27;;;8.30;;
8596;SDS011;4336;49.310;8.646;2022-09-14T01:19:14;9.80;;;8.20;;
8596;SDS011;4336;49.310;8.646;2022-09-14T01:21:41;13.17;;;9.47;;
8596;SDS011;4336;49.310;8.646;2022-09-14T01:27:09;14.43;;;9.80;;
8596;SDS011;4336;49.310;8.646;2022-09-14T01:34:39;21.23;;;10.17;;
8596;SDS011;4336;49.310;8.646;2022-09-14T01:37:10;15.60;;;10.23;;
8596;SDS011;4336;49.310;8.646;2022-09-14T01:39:39;14.87;;;9.33;;
8596;SDS011;4336;49.310;8.646;2022-09-14T01:42:07;13.83;;;9.37;;
8596;SDS011;4336;49.310;8.646;2022-09-14T01:44:34;12.37;;;8.67;;
8596;SDS011;4336;49.310;8.646;2022-09-14T01:47:05;13.13;;;8.57;;
8596;SDS011;4336;49.310;8.646;2022-09-14T01:49:40;14.90;;;9.37;;
8596;SDS011;4336;49.310;8.646;2022-09-14T01:52:15;15.57;;;8.80;;
8596;SDS011;4336;49.310;8.646;2022-09-14T01:54:46;15.13;;;9.70;;
8596;SDS011;4336;49.310;8.646;2022-09-14T01:57:18;13.03;;;8.83;;
8596;SDS011;4336;49.310;8.646;2022-09-14T01:59:46;18.83;;;9.10;;
8596;SDS011;4336;49.310;8.646;2022-09-14T02:04:45;15.77;;;8.63;;
8596;SDS011;4336;49.310;8.646;2022-09-14T02:07:13;13.93;;;9.23;;
8596;SDS011;4336;49.310;8.646;2022-09-14T02:09:40;14.53;;;9.53;;
8596;SDS011;4336;49.310;8.646;2022-09-14T02:12:07;24.03;;;10.77;;
8596;SDS011;4336;49.310;8.646;2022-09-14T02:14:34;22.93;;;9.80;;
8596;SDS011;4336;49.310;8.646;2022-09-14T02:17:00;16.27;;;9.83;;
8596;SDS011;4336;49.310;8.646;2022-09-14T02:19:28;22.57;;;11.10;;
8596;SDS011;4336;49.310;8.646;2022-09-14T02:21:56;23.33;;;11.30;;
8596;SDS011;4336;49.310;8.646;2022-09-14T02:24:22;21.37;;;11.50;;
8596;SDS011;4336;49.310;8.646;2022-09-14T02:26:48;28.47;;;12.70;;
8596;SDS011;4336;49.310;8.646;2022-09-14T02:29:16;24.33;;;12.63;;
8596;SDS011;4336;49.310;8.646;2022-09-14T02:39:47;16.87;;;10.13;;
8596;SDS011;4336;49.310;8.646;2022-09-14T02:42:32;30.07;;;11.70;;
8596;SDS011;4336;49.310;8.646;2022-09-14T02:45:17;30.07;;;12.67;;
8596;SDS011;4336;49.310;8.646;2022-09-14T02:50:28;31.70;;;11.67;;
8596;SDS011;4336;49.310;8.646;2022-09-14T02:55:40;32.53;;;13.43;;
8596;SDS011;4336;49.310;8.646;2022-09-14T02:58:11;20.97;;;11.33;;
8596;SDS011;4336;49.310;8.646;2022-09-14T03:00:38;33.60;;;13.47;;
8596;SDS011;4336;49.310;8.646;2022-09-14T03:03:05;32.00;;;12.70;;
8596;SDS011;4336;49.310;8.646;2022-09-14T03:05:32;28.07;;;12.03;;
8596;SDS011;4336;49.310;8.646;2022-09-14T03:07:58;25.43;;;11.23;;
8596;SDS011;4336;49.310;8.646;2022-09-14T03:10:25;26.80;;;10.80;;
8596;SDS011;4336;49.310;8.646;2022-09-14T03:12:51;28.13;;;11.77;;
8596;SDS011;4336;49.310;8.646;2022-09-14T03:15:18;20.23;;;11.47;;
8596;SDS011;4336;49.310;8.646;2022-09-14T03:17:45;24.77;;;11.00;;
8596;SDS011;4336;49.310;8.646;2022-09-14T03:20:12;21.43;;;10.60;;
8596;SDS011;4336;49.310;8.646;2022-09-14T03:22:38;17.73;;;9.53;;
8596;SDS011;4336;49.310;8.646;2022-09-14T03:25:05;22.97;;;10.30;;
8596;SDS011;4336;49.310;8.646;2022-09-14T03:27:31;17.17;;;8.73;;
8596;SDS011;4336;49.310;8.646;2022-09-14T03:29:57;22.57;;;9.47;;
8596;SDS011;4336;49.310;8.646;2022-09-14T03:32:23;18.73;;;8.97;;
8596;SDS011;4336;49.310;8.646;2022-09-14T03:34:49;13.07;;;7.60;;
8596;SDS011;4336;49.310;8.646;2022-09-14T03:37:15;10.13;;;7.20;;
8596;SDS011;4336;49.310;8.646;2022-09-14T03:39:42;13.60;;;7.43;;
8596;SDS011;4336;49.310;8.646;2022-09-14T03:42:08;13.27;;;7.87;;
8596;SDS011;4336;49.310;8.646;2022-09-14T03:44:34;12.23;;;7.80;;
8596;SDS011;4336;49.310;8.646;2022-09-14T03:47:00;10.83;;;6.47;;
8596;SDS011;4336;49.310;8.646;2022-09-14T03:49:26;9.50;;;7.10;;
8596;SDS011;4336;49.310;8.646;2022-09-14T03:51:52;11.27;;;7.43;;
8596;SDS011;4336;49.310;8.646;2022-09-14T03:54:18;13.47;;;7.33;;
8596;SDS011;4336;49.310;8.646;2022-09-14T03:56:44;9.53;;;6.90;;
8596;SDS011;4336;49.310;8.646;2022-09-14T03:59:11;9.93;;;7.77;;
8596;SDS011;4336;49.310;8.646;2022-09-14T04:01:37;9.70;;;6.57;;
8596;SDS011;4336;49.310;8.646;2022-09-14T04:04:03;8.70;;;6.37;;
8596;SDS011;4336;49.310;8.646;2022-09-14T04:06:29;11.30;;;7.67;;
8596;SDS011;4336;49.310;8.646;2022-09-14T04:08:56;9.10;;;6.97;;
8596;SDS011;4336;49.310;8.646;2022-09-14T04:11:24;9.47;;;6.83;;
8596;SDS011;4336;49.310;8.646;2022-09-14T04:13:51;11.10;;;6.80;;
8596;SDS011;4336;49.310;8.646;2022-09-14T04:16:17;9.30;;;6.57;;
8596;SDS011;4336;49.310;8.646;2022-09-14T04:18:47;9.93;;;7.30;;
8596;SDS011;4336;49.310;8.646;2022-09-14T04:21:14;18.37;;;8.30;;
8596;SDS011;4336;49.310;8.646;2022-09-14T04:23:41;9.37;;;7.17;;
8596;SDS011;4336;49.310;8.646;2022-09-14T04:26:11;10.00;;;7.13;;
8596;SDS011;4336;49.310;8.646;2022-09-14T04:28:38;11.10;;;6.60;;
8596;SDS011;4336;49.310;8.646;2022-09-14T04:31:05;10.47;;;6.80;;
8596;SDS011;4336;49.310;8.646;2022-09-14T04:33:32;12.60;;;8.10;;
8596;SDS011;4336;49.310;8.646;2022-09-14T04:35:59;11.90;;;7.47;;
8596;SDS011;4336;49.310;8.646;2022-09-14T04:38:27;8.17;;;7.17;;
8596;SDS011;4336;49.310;8.646;2022-09-14T04:40:53;14.00;;;7.53;;
8596;SDS011;4336;49.310;8.646;2022-09-14T04:43:20;14.47;;;7.37;;
8596;SDS011;4336;49.310;8.646;2022-09-14T04:45:46;11.23;;;8.37;;
8596;SDS011;4336;49.310;8.646;2022-09-14T04:48:13;8.80;;;7.30;;
8596;SDS011;4336;49.310;8.646;2022-09-14T04:50:39;11.33;;;7.83;;
8596;SDS011;4336;49.310;8.646;2022-09-14T04:53:05;10.57;;;7.30;;
8596;SDS011;4336;49.310;8.646;2022-09-14T04:55:31;13.03;;;7.87;;
8596;SDS011;4336;49.310;8.646;2022-09-14T04:57:57;10.10;;;7.23;;
8596;SDS011;4336;49.310;8.646;2022-09-14T05:00:23;12.17;;;7.47;;
8596;SDS011;4336;49.310;8.646;2022-09-14T05:02:50;18.63;;;11.53;;
8596;SDS011;4336;49.310;8.646;2022-09-14T05:05:16;10.50;;;8.03;;
8596;SDS011;4336;49.310;8.646;2022-09-14T05:07:42;15.03;;;8.97;;
8596;SDS011;4336;49.310;8.646;2022-09-14T05:10:08;11.53;;;7.60;;
8596;SDS011;4336;49.310;8.646;2022-09-14T05:12:35;12.60;;;7.80;;
8596;SDS011;4336;49.310;8.646;2022-09-14T05:15:01;11.03;;;7.90;;
8596;SDS011;4336;49.310;8.646;2022-09-14T05:17:27;10.90;;;7.80;;
8596;SDS011;4336;49.310;8.646;2022-09-14T05:19:53;9.77;;;7.57;;
8596;SDS011;4336;49.310;8.646;2022-09-14T05:22:19;13.07;;;7.47;;
8596;SDS011;4336;49.310;8.646;2022-09-14T05:24:46;15.07;;;8.73;;
8596;SDS011;4336;49.310;8.646;2022-09-14T05:27:12;14.13;;;8.17;;
8596;SDS011;4336;49.310;8.646;2022-09-14T05:29:38;18.27;;;8.63;;
8596;SDS011;4336;49.310;8.646;2022-09-14T05:32:05;15.33;;;7.97;;
8596;SDS011;4336;49.310;8.646;2022-09-14T05:34:31;15.47;;;8.07;;
8596;SDS011;4336;49.310;8.646;2022-09-14T05:36:57;11.73;;;7.73;;
8596;SDS011;4336;49.310;8.646;2022-09-14T05:39:23;17.43;;;10.50;;
8596;SDS011;4336;49.310;8.646;2022-09-14T05:41:50;13.87;;;8.80;;
8596;SDS011;4336;49.310;8.646;2022-09-14T05:44:16;14.27;;;8.70;;
8596;SDS011;4336;49.310;8.646;2022-09-14T05:46:43;12.80;;;8.40;;
8596;SDS011;4336;49.310;8.646;2022-09-14T05:49:09;11.97;;;8.53;;
8596;SDS011;4336;49.310;8.646;2022-09-14T05:51:35;14.80;;;8.67;;
8596;SDS011;4336;49.310;8.646;2022-09-14T05:54:01;13.07;;;8.03;;
8596;SDS011;4336;49.310;8.646;2022-09-14T05:56:33;21.97;;;9.73;;
8596;SDS011;4336;49.310;8.646;2022-09-14T05:58:59;16.90;;;9.07;;
8596;SDS011;4336;49.310;8.646;2022-09-14T06:01:26;23.33;;;11.53;;
8596;SDS011;4336;49.310;8.646;2022-09-14T06:03:53;19.23;;;8.67;;
8596;SDS011;4336;49.310;8.646;2022-09-14T06:06:20;20.47;;;10.13;;
8596;SDS011;4336;49.310;8.646;2022-09-14T06:08:47;20.53;;;9.50;;
8596;SDS011;4336;49.310;8.646;2022-09-14T06:11:17;12.20;;;7.80;;
8596;SDS011;4336;49.310;8.646;2022-09-14T06:13:44;18.73;;;8.73;;
8596;SDS011;4336;49.310;8.646;2022-09-14T06:16:15;12.60;;;8.67;;
8596;SDS011;4336;49.310;8.646;2022-09-14T06:18:41;24.70;;;9.53;;
8596;SDS011;4336;49.310;8.646;2022-09-14T06:21:08;15.70;;;9.40;;
8596;SDS011;4336;49.310;8.646;2022-09-14T06:23:35;19.47;;;9.00;;
8596;SDS011;4336;49.310;8.646;2022-09-14T06:26:02;17.77;;;9.30;;
8596;SDS011;4336;49.310;8.646;2022-09-14T06:28:29;17.30;;;9.40;;
8596;SDS011;4336;49.310;8.646;2022-09-14T06:30:55;14.93;;;9.10;;
8596;SDS011;4336;49.310;8.646;2022-09-14T06:33:21;12.57;;;8.80;;
8596;SDS011;4336;49.310;8.646;2022-09-14T06:38:26;17.47;;;10.03;;
8596;SDS011;4336;49.310;8.646;2022-09-14T06:40:53;14.60;;;9.80;;
8596;SDS011;4336;49.310;8.646;2022-09-14T06:43:21;16.00;;;9.30;;
8596;SDS011;4336;49.310;8.646;2022-09-14T06:46:21;24.10;;;10.50;;
8596;SDS011;4336;49.310;8.646;2022-09-14T06:48:44;19.43;;;10.03;;
8596;SDS011;4336;49.310;8.646;2022-09-14T06:53:40;17.40;;;10.10;;
8596;SDS011;4336;49.310;8.646;2022-09-14T06:56:06;16.73;;;10.70;;
8596;SDS011;4336;49.310;8.646;2022-09-14T06:58:32;17.70;;;9.23;;
8596;SDS011;4336;49.310;8.646;2022-09-14T07:01:02;18.77;;;10.27;;
8596;SDS011;4336;49.310;8.646;2022-09-14T07:03:29;15.93;;;9.23;;
8596;SDS011;4336;49.310;8.646;2022-09-14T07:06:06;14.03;;;9.03;;
8596;SDS011;4336;49.310;8.646;2022-09-14T07:08:32;14.57;;;9.73;;
8596;SDS011;4336;49.310;8.646;2022-09-14T07:10:59;14.83;;;9.63;;
8596;SDS011;4336;49.310;8.646;2022-09-14T07:13:26;16.03;;;9.53;;
8596;SDS011;4336;49.310;8.646;2022-09-14T07:15:52;15.10;;;10.00;;
8596;SDS011;4336;49.310;8.646;2022-09-14T07:18:19;16.27;;;9.80;;
8596;SDS011;4336;49.310;8.646;2022-09-14T07:20:46;12.50;;;9.63;;
8596;SDS011;4336;49.310;8.646;2022-09-14T07:23:12;17.53;;;12.20;;
8596;SDS011;4336;49.310;8.646;2022-09-14T07:25:38;18.17;;;12.17;;
8596;SDS011;4336;49.310;8.646;2022-09-14T07:28:05;15.07;;;10.70;;
8596;SDS011;4336;49.310;8.646;2022-09-14T07:30:35;25.43;;;13.90;;
8596;SDS011;4336;49.310;8.646;2022-09-14T07:33:02;13.80;;;9.83;;
8596;SDS011;4336;49.310;8.646;2022-09-14T07:35:28;18.83;;;10.87;;
8596;SDS011;4336;49.310;8.646;2022-09-14T07:37:55;13.77;;;10.37;;
8596;SDS011;4336;49.310;8.646;2022-09-14T07:40:21;15.57;;;10.80;;
8596;SDS011;4336;49.310;8.646;2022-09-14T07:42:51;14.00;;;10.00;;
8596;SDS011;4336;49.310;8.646;2022-09-14T07:45:17;13.67;;;9.93;;
8596;SDS011;4336;49.310;8.646;2022-09-14T07:47:44;11.13;;;9.57;;
8596;SDS011;4336;49.310;8.646;2022-09-14T07:50:10;15.37;;;10.23;;
8596;SDS011;4336;49.310;8.646;2022-09-14T07:52:36;16.03;;;9.77;;
8596;SDS011;4336;49.310;8.646;2022-09-14T07:55:03;14.83;;;11.70;;
8596;SDS011;4336;49.310;8.646;2022-09-14T07:57:30;12.73;;;10.30;;
8596;SDS011;4336;49.310;8.646;2022-09-14T07:59:56;13.30;;;10.13;;
8596;SDS011;4336;49.310;8.646;2022-09-14T08:02:23;14.07;;;10.37;;
8596;SDS011;4336;49.310;8.646;2022-09-14T08:04:49;12.20;;;9.93;;
8596;SDS011;4336;49.310;8.646;2022-09-14T08:07:18;11.33;;;10.03;;
8596;SDS011;4336;49.310;8.646;2022-09-14T08:09:44;11.47;;;9.40;;
8596;SDS011;4336;49.310;8.646;2022-09-14T08:12:10;10.43;;;8.77;;
8596;SDS011;4336;49.310;8.646;2022-09-14T08:14:40;10.83;;;8.77;;
8596;SDS011;4336;49.310;8.646;2022-09-14T08:17:06;10.03;;;8.93;;
8596;SDS011;4336;49.310;8.646;2022-09-14T08:19:33;10.77;;;8.20;;
8596;SDS011;4336;49.310;8.646;2022-09-14T08:21:59;12.10;;;10.07;;
8596;SDS011;4336;49.310;8.646;2022-09-14T08:24:25;14.00;;;10.40;;
8596;SDS011;4336;49.310;8.646;2022-09-14T08:26:50;11.50;;;9.07;;
8596;SDS011;4336;49.310;8.646;2022-09-14T08:29:16;11.17;;;9.80;;
8596;SDS011;4336;49.310;8.646;2022-09-14T08:31:43;10.57;;;8.93;;
8596;SDS011;4336;49.310;8.646;2022-09-14T08:34:10;10.20;;;8.63;;
8596;SDS011;4336;49.310;8.646;2022-09-14T08:36:37;15.03;;;9.60;;
8596;SDS011;4336;49.310;8.646;2022-09-14T08:39:04;12.57;;;9.40;;
8596;SDS011;4336;49.310;8.646;2022-09-14T08:44:01;10.00;;;8.90;;
8596;SDS011;4336;49.310;8.646;2022-09-14T08:46:46;9.73;;;8.63;;
8596;SDS011;4336;49.310;8.646;2022-09-14T08:49:28;10.37;;;9.27;;
8596;SDS011;4336;49.310;8.646;2022-09-14T08:51:55;9.60;;;7.83;;
8596;SDS011;4336;49.310;8.646;2022-09-14T08:54:21;9.13;;;8.23;;
8596;SDS011;4336;49.310;8.646;2022-09-14T08:56:53;11.03;;;8.83;;
8596;SDS011;4336;49.310;8.646;2022-09-14T09:04:57;8.87;;;7.40;;
8596;SDS011;4336;49.310;8.646;2022-09-14T09:11:03;9.43;;;8.43;;
8596;SDS011;4336;49.310;8.646;2022-09-14T09:13:32;8.27;;;7.00;;
8596;SDS011;4336;49.310;8.646;2022-09-14T09:16:03;9.33;;;7.93;;
8596;SDS011;4336;49.310;8.646;2022-09-14T09:21:26;9.60;;;8.57;;
8596;SDS011;4336;49.310;8.646;2022-09-14T09:23:58;9.20;;;7.30;;
8596;SDS011;4336;49.310;8.646;2022-09-14T09:26:34;11.40;;;7.07;;
8596;SDS011;4336;49.310;8.646;2022-09-14T09:29:00;8.70;;;7.77;;
8596;SDS011;4336;49.310;8.646;2022-09-14T09:31:52;9.63;;;8.10;;
8596;SDS011;4336;49.310;8.646;2022-09-14T09:34:38;8.53;;;7.53;;
8596;SDS011;4336;49.310;8.646;2022-09-14T09:37:14;9.60;;;8.60;;
8596;SDS011;4336;49.310;8.646;2022-09-14T09:39:42;9.50;;;8.57;;
8596;SDS011;4336;49.310;8.646;2022-09-14T09:42:19;12.53;;;9.30;;
8596;SDS011;4336;49.310;8.646;2022-09-14T09:44:56;10.37;;;8.97;;
8596;SDS011;4336;49.310;8.646;2022-09-14T09:47:31;8.67;;;7.87;;
8596;SDS011;4336;49.310;8.646;2022-09-14T09:52:43;16.23;;;8.23;;
8596;SDS011;4336;49.310;8.646;2022-09-14T09:55:17;10.13;;;9.07;;
8596;SDS011;4336;49.310;8.646;2022-09-14T09:57:44;9.27;;;8.33;;
8596;SDS011;4336;49.310;8.646;2022-09-14T10:00:17;7.43;;;6.73;;
8596;SDS011;4336;49.310;8.646;2022-09-14T10:02:47;22.27;;;7.20;;
8596;SDS011;4336;49.310;8.646;2022-09-14T10:10:38;13.97;;;7.00;;
8596;SDS011;4336;49.310;8.646;2022-09-14T10:13:33;9.20;;;7.37;;
8596;SDS011;4336;49.310;8.646;2022-09-14T10:16:13;7.70;;;6.90;;
8596;SDS011;4336;49.310;8.646;2022-09-14T10:18:42;7.30;;;6.67;;
8596;SDS011;4336;49.310;8.646;2022-09-14T10:21:09;7.30;;;6.60;;
8596;SDS011;4336;49.310;8.646;2022-09-14T10:23:36;8.38;;;7.05;;
8596;SDS011;4336;49.310;8.646;2022-09-14T10:28:44;9.20;;;7.35;;
8596;SDS011;4336;49.310;8.646;2022-09-14T10:33:41;7.47;;;6.78;;
8596;SDS011;4336;49.310;8.646;2022-09-14T10:36:09;8.13;;;7.00;;
8596;SDS011;4336;49.310;8.646;2022-09-14T10:41:40;7.35;;;6.65;;
8596;SDS011;4336;49.310;8.646;2022-09-14T10:44:26;7.15;;;6.32;;
8596;SDS011;4336;49.310;8.646;2022-09-14T10:49:28;11.00;;;6.60;;
8596;SDS011;4336;49.310;8.646;2022-09-14T11:00:29;8.27;;;7.13;;
8596;SDS011;4336;49.310;8.646;2022-09-14T11:05:38;7.82;;;6.28;;
8596;SDS011;4336;49.310;8.646;2022-09-14T11:13:36;6.82;;;6.22;;
8596;SDS011;4336;49.310;8.646;2022-09-14T11:21:57;9.38;;;6.95;;
8596;SDS011;4336;49.310;8.646;2022-09-14T11:24:29;7.13;;;6.47;;
8596;SDS011;4336;49.310;8.646;2022-09-14T11:29:51;6.65;;;5.63;;
8596;SDS011;4336;49.310;8.646;2022-09-14T11:32:20;7.15;;;6.10;;
8596;SDS011;4336;49.310;8.646;2022-09-14T11:37:58;6.18;;;5.57;;
8596;SDS011;4336;49.310;8.646;2022-09-14T11:40:28;6.43;;;5.68;;
8596;SDS011;4336;49.310;8.646;2022-09-14T11:42:58;5.95;;;5.45;;
8596;SDS011;4336;49.310;8.646;2022-09-14T11:45:55;7.38;;;6.68;;
8596;SDS011;4336;49.310;8.646;2022-09-14T11:48:37;8.18;;;5.97;;
8596;SDS011;4336;49.310;8.646;2022-09-14T11:51:17;14.43;;;6.70;;
8596;SDS011;4336;49.310;8.646;2022-09-14T11:53:46;6.88;;;5.90;;
8596;SDS011;4336;49.310;8.646;2022-09-14T11:58:55;7.32;;;6.70;;
8596;SDS011;4336;49.310;8.646;2022-09-14T12:01:30;6.78;;;6.07;;
8596;SDS011;4336;49.310;8.646;2022-09-14T12:06:42;14.48;;;6.85;;
8596;SDS011;4336;49.310;8.646;2022-09-14T12:11:43;7.60;;;6.75;;
8596;SDS011;4336;49.310;8.646;2022-09-14T12:17:04;6.82;;;6.22;;
8596;SDS011;4336;49.310;8.646;2022-09-14T12:19:38;7.78;;;6.03;;
8596;SDS011;4336;49.310;8.646;2022-09-14T12:24:43;12.87;;;6.90;;
8596;SDS011;4336;49.310;8.646;2022-09-14T12:27:13;7.93;;;6.30;;
8596;SDS011;4336;49.310;8.646;2022-09-14T12:29:43;8.03;;;6.60;;
8596;SDS011;4336;49.310;8.646;2022-09-14T12:32:25;6.43;;;5.83;;
8596;SDS011;4336;49.310;8.646;2022-09-14T12:37:58;7.20;;;6.50;;
8596;SDS011;4336;49.310;8.646;2022-09-14T12:42:53;7.17;;;6.53;;
8596;SDS011;4336;49.310;8.646;2022-09-14T12:51:20;9.17;;;6.63;;
8596;SDS011;4336;49.310;8.646;2022-09-14T12:57:17;6.90;;;6.30;;
8596;SDS011;4336;49.310;8.646;2022-09-14T13:02:33;6.70;;;6.07;;
8596;SDS011;4336;49.310;8.646;2022-09-14T13:05:23;7.90;;;5.80;;
8596;SDS011;4336;49.310;8.646;2022-09-14T13:07:50;7.07;;;5.80;;
8596;SDS011;4336;49.310;8.646;2022-09-14T13:10:28;8.30;;;6.43;;
8596;SDS011;4336;49.310;8.646;2022-09-14T13:12:59;6.70;;;5.93;;
8596;SDS011;4336;49.310;8.646;2022-09-14T13:15:33;7.43;;;5.93;;
8596;SDS011;4336;49.310;8.646;2022-09-14T13:18:02;7.27;;;6.60;;
8596;SDS011;4336;49.310;8.646;2022-09-14T13:20:31;11.30;;;6.47;;
8596;SDS011;4336;49.310;8.646;2022-09-14T13:22:59;7.33;;;6.20;;
8596;SDS011;4336;49.310;8.646;2022-09-14T13:25:26;8.07;;;5.83;;
8596;SDS011;4336;49.310;8.646;2022-09-14T13:27:56;5.47;;;5.07;;
8596;SDS011;4336;49.310;8.646;2022-09-14T13:30:24;7.50;;;5.30;;
8596;SDS011;4336;49.310;8.646;2022-09-14T13:32:52;11.47;;;5.97;;
8596;SDS011;4336;49.310;8.646;2022-09-14T13:37:51;6.00;;;5.37;;
8596;SDS011;4336;49.310;8.646;2022-09-14T13:40:21;5.90;;;5.30;;
8596;SDS011;4336;49.310;8.646;2022-09-14T13:42:48;7.03;;;6.33;;
8596;SDS011;4336;49.310;8.646;2022-09-14T13:45:14;5.93;;;5.43;;
8596;SDS011;4336;49.310;8.646;2022-09-14T13:47:39;7.60;;;5.53;;
8596;SDS011;4336;49.310;8.646;2022-09-14T13:50:05;5.97;;;5.47;;
8596;SDS011;4336;49.310;8.646;2022-09-14T13:52:35;6.17;;;5.67;;
8596;SDS011;4336;49.310;8.646;2022-09-14T14:00:47;7.10;;;5.67;;
8596;SDS011;4336;49.310;8.646;2022-09-14T14:03:24;6.30;;;5.80;;
8596;SDS011;4336;49.310;8.646;2022-09-14T14:05:52;7.30;;;6.43;;
8596;SDS011;4336;49.310;8.646;2022-09-14T14:08:26;5.70;;;5.23;;
8596;SDS011;4336;49.310;8.646;2022-09-14T14:10:55;18.97;;;6.27;;
8596;SDS011;4336;49.310;8.646;2022-09-14T14:13:30;6.40;;;5.80;;
8596;SDS011;4336;49.310;8.646;2022-09-14T14:16:39;7.60;;;6.77;;
8596;SDS011;4336;49.310;8.646;2022-09-14T14:18:56;6.63;;;6.13;;
8596;SDS011;4336;49.310;8.646;2022-09-14T14:26:51;5.90;;;5.40;;
8596;SDS011;4336;49.310;8.646;2022-09-14T14:29:20;5.93;;;5.43;;
8596;SDS011;4336;49.310;8.646;2022-09-14T14:31:47;6.93;;;5.73;;
8596;SDS011;4336;49.310;8.646;2022-09-14T14:34:21;9.17;;;6.10;;
8596;SDS011;4336;49.310;8.646;2022-09-14T14:36:48;7.13;;;6.53;;
8596;SDS011;4336;49.310;8.646;2022-09-14T14:39:18;9.43;;;6.30;;
8596;SDS011;4336;49.310;8.646;2022-09-14T14:41:45;9.20;;;6.53;;
8596;SDS011;4336;49.310;8.646;2022-09-14T14:44:12;6.13;;;5.63;;
8596;SDS011;4336;49.310;8.646;2022-09-14T14:46:40;6.67;;;6.07;;
8596;SDS011;4336;49.310;8.646;2022-09-14T14:49:09;6.63;;;5.97;;
8596;SDS011;4336;49.310;8.646;2022-09-14T14:51:36;6.30;;;5.70;;
8596;SDS011;4336;49.310;8.646;2022-09-14T14:54:02;6.17;;;5.63;;
8596;SDS011;4336;49.310;8.646;2022-09-14T14:56:28;6.33;;;5.73;;
8596;SDS011;4336;49.310;8.646;2022-09-14T14:58:54;7.60;;;6.50;;
8596;SDS011;4336;49.310;8.646;2022-09-14T15:01:20;6.30;;;5.70;;
8596;SDS011;4336;49.310;8.646;2022-09-14T15:03:46;6.80;;;6.10;;
8596;SDS011;4336;49.310;8.646;2022-09-14T15:06:13;6.80;;;5.43;;
8596;SDS011;4336;49.310;8.646;2022-09-14T15:08:40;6.43;;;5.93;;
8596;SDS011;4336;49.310;8.646;2022-09-14T15:11:09;6.40;;;5.83;;
8596;SDS011;4336;49.310;8.646;2022-09-14T15:13:39;6.20;;;5.70;;
8596;SDS011;4336;49.310;8.646;2022-09-14T15:16:05;7.73;;;6.00;;
8596;SDS011;4336;49.310;8.646;2022-09-14T15:18:31;7.97;;;6.83;;
8596;SDS011;4336;49.310;8.646;2022-09-14T15:20:57;7.37;;;6.67;;
8596;SDS011;4336;49.310;8.646;2022-09-14T15:23:23;6.60;;;5.93;;
8596;SDS011;4336;49.310;8.646;2022-09-14T15:25:49;7.00;;;6.40;;
8596;SDS011;4336;49.310;8.646;2022-09-14T15:28:15;7.20;;;5.90;;
8596;SDS011;4336;49.310;8.646;2022-09-14T15:30:41;6.33;;;5.73;;
8596;SDS011;4336;49.310;8.646;2022-09-14T15:33:08;7.17;;;5.50;;
8596;SDS011;4336;49.310;8.646;2022-09-14T15:35:33;6.30;;;5.70;;
8596;SDS011;4336;49.310;8.646;2022-09-14T15:38:00;6.30;;;5.70;;
8596;SDS011;4336;49.310;8.646;2022-09-14T15:40:26;8.73;;;6.07;;
8596;SDS011;4336;49.310;8.646;2022-09-14T15:42:52;6.60;;;5.87;;
8596;SDS011;4336;49.310;8.646;2022-09-14T15:45:18;5.73;;;5.13;;
8596;SDS011;4336;49.310;8.646;2022-09-14T15:47:44;7.80;;;6.57;;
8596;SDS011;4336;49.310;8.646;2022-09-14T15:50:11;6.43;;;5.83;;
8596;SDS011;4336;49.310;8.646;2022-09-14T15:52:37;6.33;;;5.73;;
8596;SDS011;4336;49.310;8.646;2022-09-14T15:55:04;9.57;;;6.50;;
8596;SDS011;4336;49.310;8.646;2022-09-14T15:57:31;6.57;;;5.97;;
8596;SDS011;4336;49.310;8.646;2022-09-14T15:59:59;8.20;;;6.77;;
8596;SDS011;4336;49.310;8.646;2022-09-14T16:02:25;7.00;;;5.93;;
8596;SDS011;4336;49.310;8.646;2022-09-14T16:04:50;6.67;;;5.87;;
8596;SDS011;4336;49.310;8.646;2022-09-14T16:07:16;6.90;;;5.43;;
8596;SDS011;4336;49.310;8.646;2022-09-14T16:09:42;7.50;;;6.27;;
8596;SDS011;4336;49.310;8.646;2022-09-14T16:12:08;5.87;;;5.37;;
8596;SDS011;4336;49.310;8.646;2022-09-14T16:14:35;6.07;;;5.33;;
8596;SDS011;4336;49.310;8.646;2022-09-14T16:17:01;6.37;;;5.63;;
8596;SDS011;4336;49.310;8.646;2022-09-14T16:19:27;5.73;;;5.30;;
8596;SDS011;4336;49.310;8.646;2022-09-14T16:21:53;5.50;;;5.00;;
8596;SDS011;4336;49.310;8.646;2022-09-14T16:24:22;5.93;;;5.30;;
8596;SDS011;4336;49.310;8.646;2022-09-14T16:26:48;6.43;;;5.60;;
8596;SDS011;4336;49.310;8.646;2022-09-14T16:29:15;6.90;;;6.17;;
8596;SDS011;4336;49.310;8.646;2022-09-14T16:31:43;6.03;;;5.53;;
8596;SDS011;4336;49.310;8.646;2022-09-14T16:34:15;8.40;;;6.80;;
8596;SDS011;4336;49.310;8.646;2022-09-14T16:36:44;7.03;;;6.43;;
8596;SDS011;4336;49.310;8.646;2022-09-14T16:39:14;7.20;;;5.57;;
8596;SDS011;4336;49.310;8.646;2022-09-14T16:41:42;7.50;;;6.80;;
8596;SDS011;4336;49.310;8.646;2022-09-14T16:44:09;6.70;;;5.50;;
8596;SDS011;4336;49.310;8.646;2022-09-14T16:46:37;5.50;;;5.10;;
8596;SDS011;4336;49.310;8.646;2022-09-14T16:49:03;6.57;;;5.93;;
8596;SDS011;4336;49.310;8.646;2022-09-14T16:51:32;6.40;;;5.77;;
8596;SDS011;4336;49.310;8.646;2022-09-14T16:53:58;6.43;;;5.83;;
8596;SDS011;4336;49.310;8.646;2022-09-14T16:56:26;6.43;;;5.83;;
8596;SDS011;4336;49.310;8.646;2022-09-14T16:58:54;6.83;;;6.13;;
8596;SDS011;4336;49.310;8.646;2022-09-14T17:01:21;7.03;;;6.23;;
8596;SDS011;4336;49.310;8.646;2022-09-14T17:03:53;5.60;;;5.10;;
8596;SDS011;4336;49.310;8.646;2022-09-14T17:06:21;6.90;;;5.63;;
8596;SDS011;4336;49.310;8.646;2022-09-14T17:08:51;10.97;;;5.20;;
8596;SDS011;4336;49.310;8.646;2022-09-14T17:11:18;6.07;;;5.50;;
8596;SDS011;4336;49.310;8.646;2022-09-14T17:13:44;6.50;;;5.87;;
8596;SDS011;4336;49.310;8.646;2022-09-14T17:16:11;6.87;;;5.37;;
8596;SDS011;4336;49.310;8.646;2022-09-14T17:18:39;8.90;;;5.77;;
8596;SDS011;4336;49.310;8.646;2022-09-14T17:21:07;6.50;;;5.83;;
8596;SDS011;4336;49.310;8.646;2022-09-14T17:23:35;6.27;;;5.77;;
8596;SDS011;4336;49.310;8.646;2022-09-14T17:26:01;9.60;;;6.27;;
8596;SDS011;4336;49.310;8.646;2022-09-14T17:28:29;8.57;;;5.97;;
8596;SDS011;4336;49.310;8.646;2022-09-14T17:30:56;8.13;;;6.90;;
8596;SDS011;4336;49.310;8.646;2022-09-14T17:33:23;6.93;;;6.17;;
8596;SDS011;4336;49.310;8.646;2022-09-14T17:35:50;6.57;;;5.97;;
8596;SDS011;4336;49.310;8.646;2022-09-14T17:38:19;6.83;;;5.23;;